Time;durP1;ratioP1;P1;durP2;ratioP2;P2;SDS_P1;SDS_P2;PMS_P1;PMS_P2;Temp;Humidity;BMP_temperature;BMP_pressure;BME280_temperature;BME280_humidity;BME280_pressure;Samples;Min_cycle;Max_cycle;Signal;HPM_P1;HPM_P2
2021/07/09 00:02:54;;;;;;;1.17;0.63;;;24.00;60.10;;;;;;6215326;28;20026;-68
2021/07/09 00:05:54;;;;;;;0.50;0.50;;;24.00;60.10;;;;;;6203610;28;20105;-67
2021/07/09 00:08:55;;;;;;;0.50;0.50;;;24.00;60.00;;;;;;6199508;28;20026;-68
2021/07/09 00:11:56;;;;;;;0.50;0.50;;;24.00;60.00;;;;;;6215455;28;20028;-68
2021/07/09 00:14:57;;;;;;;1.20;0.80;;;24.00;60.00;;;;;;6215311;28;20021;-67
2021/07/09 00:17:58;;;;;;;0.60;0.50;;;24.00;60.00;;;;;;6215164;28;20032;-68
2021/07/09 00:20:58;;;;;;;0.70;0.57;;;24.00;60.00;;;;;;6215078;28;20021;-68
2021/07/09 00:24:01;;;;;;;0.63;0.47;;;24.00;60.00;;;;;;6202279;28;20019;-67
2021/07/09 00:27:03;;;;;;;0.57;0.57;;;24.00;60.00;;;;;;6210125;28;20495;-68
2021/07/09 00:30:04;;;;;;;0.55;0.50;;;24.00;60.00;;;;;;6220065;28;20281;-68
2021/07/09 00:33:05;;;;;;;0.50;0.45;;;24.00;60.00;;;;;;6219231;28;20400;-68
2021/07/09 00:36:05;;;;;;;0.52;0.50;;;24.00;60.00;;;;;;6219207;28;20022;-68
2021/07/09 00:39:08;;;;;;;0.90;0.60;;;24.00;60.00;;;;;;6219705;28;20021;-68
2021/07/09 00:42:08;;;;;;;0.43;0.40;;;24.00;60.00;;;;;;6219594;28;20033;-68
2021/07/09 00:45:10;;;;;;;0.60;0.60;;;24.00;60.00;;;;;;6219162;28;20053;-67
2021/07/09 00:48:10;;;;;;;0.55;0.50;;;24.00;60.00;;;;;;6218812;28;20091;-67
2021/07/09 00:51:11;;;;;;;0.45;0.40;;;24.00;60.00;;;;;;6219346;28;20443;-67
2021/07/09 00:54:12;;;;;;;0.40;0.40;;;24.00;60.00;;;;;;6204888;28;20621;-69
2021/07/09 00:57:13;;;;;;;1.38;0.70;;;24.00;60.00;;;;;;6206863;28;20061;-68
2021/07/09 01:00:16;;;;;;;0.60;0.40;;;24.00;60.00;;;;;;6215318;28;20034;-68
2021/07/09 01:03:17;;;;;;;0.73;0.52;;;24.00;59.90;;;;;;6213902;28;20034;-68
2021/07/09 01:06:18;;;;;;;1.05;0.50;;;24.00;59.90;;;;;;6218869;28;20088;-68
2021/07/09 01:09:18;;;;;;;0.50;0.47;;;24.00;59.90;;;;;;6219334;28;20443;-67
2021/07/09 01:12:19;;;;;;;0.45;0.43;;;24.00;59.90;;;;;;6218336;28;20030;-68
2021/07/09 01:15:22;;;;;;;0.50;0.50;;;24.00;59.90;;;;;;6218731;28;20029;-68
2021/07/09 01:18:23;;;;;;;0.30;0.30;;;24.00;59.90;;;;;;6218320;28;20465;-68
2021/07/09 01:21:24;;;;;;;0.40;0.40;;;24.00;59.90;;;;;;6218237;28;20101;-67
2021/07/09 01:24:25;;;;;;;0.65;0.50;;;24.00;59.90;;;;;;6201432;28;20037;-67
2021/07/09 01:27:26;;;;;;;0.60;0.60;;;24.00;59.90;;;;;;6201910;28;20050;-68
2021/07/09 01:30:27;;;;;;;0.38;0.30;;;24.00;60.00;;;;;;6218393;28;20022;-68
2021/07/09 01:33:29;;;;;;;0.40;0.40;;;24.00;59.90;;;;;;6217966;28;20033;-68
2021/07/09 01:36:29;;;;;;;0.40;0.40;;;24.00;59.90;;;;;;6217061;28;20481;-68
2021/07/09 01:39:30;;;;;;;0.30;0.30;;;24.00;59.90;;;;;;6217752;28;20155;-68
2021/07/09 01:42:30;;;;;;;0.35;0.35;;;24.00;59.90;;;;;;6217813;28;20026;-68
2021/07/09 01:45:31;;;;;;;0.30;0.30;;;24.00;59.90;;;;;;6218069;28;20038;-68
2021/07/09 01:48:32;;;;;;;0.45;0.45;;;24.00;59.90;;;;;;6217479;28;20038;-67
2021/07/09 01:51:32;;;;;;;0.43;0.43;;;24.00;59.90;;;;;;6218026;28;20030;-68
2021/07/09 01:54:35;;;;;;;0.50;0.50;;;24.00;59.90;;;;;;6200307;28;20027;-68
2021/07/09 01:57:36;;;;;;;0.50;0.50;;;24.00;59.90;;;;;;6198275;28;20037;-68
2021/07/09 02:00:37;;;;;;;0.40;0.30;;;24.00;59.90;;;;;;6217701;28;20180;-68
2021/07/09 02:03:37;;;;;;;0.30;0.30;;;24.00;59.90;;;;;;6217530;28;20052;-68
2021/07/09 02:06:38;;;;;;;0.40;0.40;;;24.00;59.90;;;;;;6217215;28;20397;-68
2021/07/09 02:09:41;;;;;;;0.50;0.40;;;24.00;59.80;;;;;;6217075;28;20030;-68
2021/07/09 02:12:42;;;;;;;0.47;0.47;;;24.00;59.90;;;;;;6216930;28;20119;-68
2021/07/09 02:15:45;;;;;;;0.50;0.50;;;24.00;59.90;;;;;;6217332;28;20030;-68
2021/07/09 02:18:46;;;;;;;0.85;0.50;;;24.00;59.80;;;;;;6216834;28;20084;-67
2021/07/09 02:21:47;;;;;;;0.43;0.43;;;24.00;59.80;;;;;;6217226;28;20040;-68
2021/07/09 02:24:50;;;;;;;0.40;0.40;;;24.00;59.80;;;;;;6213403;28;20493;-67
2021/07/09 02:27:52;;;;;;;0.55;0.45;;;24.00;59.80;;;;;;6216186;28;20413;-68
2021/07/09 02:30:53;;;;;;;0.50;0.43;;;24.00;59.80;;;;;;6216559;28;20044;-68
2021/07/09 02:33:53;;;;;;;0.30;0.30;;;24.00;59.80;;;;;;6216797;28;20022;-68
2021/07/09 02:36:54;;;;;;;0.43;0.43;;;24.00;59.80;;;;;;6216576;28;20291;-68
2021/07/09 02:39:55;;;;;;;0.38;0.38;;;24.00;59.80;;;;;;6216348;28;20023;-68
2021/07/09 02:42:58;;;;;;;0.40;0.40;;;24.00;59.80;;;;;;6216344;28;20037;-68
2021/07/09 02:45:59;;;;;;;0.30;0.30;;;24.00;59.80;;;;;;6216190;28;20094;-67
2021/07/09 02:48:59;;;;;;;0.30;0.30;;;24.00;59.80;;;;;;6216166;28;20117;-68
2021/07/09 02:52:00;;;;;;;0.40;0.40;;;24.00;59.80;;;;;;6216343;28;20072;-67
2021/07/09 02:55:01;;;;;;;0.40;0.40;;;24.00;59.80;;;;;;6209804;28;20025;-67
2021/07/09 02:58:02;;;;;;;0.63;0.40;;;24.00;59.80;;;;;;6231413;28;20034;-68
2021/07/09 03:01:03;;;;;;;0.43;0.43;;;24.00;59.80;;;;;;6216108;28;20068;-67
2021/07/09 03:04:03;;;;;;;0.20;0.20;;;24.00;59.80;;;;;;6216069;28;20092;-68
2021/07/09 03:07:04;;;;;;;0.40;0.30;;;24.00;59.80;;;;;;6216110;28;20069;-68
2021/07/09 03:10:06;;;;;;;0.40;0.40;;;24.00;59.80;;;;;;6215954;28;20763;-68
2021/07/09 03:13:07;;;;;;;0.50;0.47;;;24.00;59.80;;;;;;6216075;28;20069;-68
2021/07/09 03:16:08;;;;;;;0.63;0.40;;;24.00;60.60;;;;;;6218599;28;20018;-68
2021/07/09 03:19:08;;;;;;;0.40;0.30;;;24.00;59.80;;;;;;6215445;28;20501;-67
2021/07/09 03:22:09;;;;;;;0.30;0.30;;;24.00;59.80;;;;;;6215887;28;20388;-68
2021/07/09 03:25:10;;;;;;;0.40;0.40;;;24.00;59.80;;;;;;6202532;28;20296;-68
2021/07/09 03:28:11;;;;;;;0.60;0.30;;;24.00;59.80;;;;;;6215334;28;20054;-68
2021/07/09 03:31:11;;;;;;;0.90;0.57;;;24.00;59.80;;;;;;6215556;28;20319;-68
2021/07/09 03:34:12;;;;;;;0.38;0.30;;;24.00;59.80;;;;;;6215226;28;20050;-68
2021/07/09 03:37:12;;;;;;;0.50;0.30;;;24.00;59.80;;;;;;6215951;28;20101;-68
2021/07/09 03:40:13;;;;;;;0.40;0.40;;;24.00;59.80;;;;;;6215503;28;20034;-68
2021/07/09 03:43:14;;;;;;;0.50;0.30;;;24.00;59.80;;;;;;6216026;28;20342;-68
2021/07/09 03:46:15;;;;;;;0.38;0.25;;;24.00;59.70;;;;;;6215441;28;20030;-68
2021/07/09 03:49:15;;;;;;;0.30;0.30;;;24.00;59.80;;;;;;6208089;28;20038;-67
2021/07/09 03:52:16;;;;;;;0.30;0.30;;;24.00;59.70;;;;;;6215513;28;20025;-68
2021/07/09 03:55:17;;;;;;;0.40;0.40;;;24.00;59.70;;;;;;6199362;28;20026;-67
2021/07/09 03:58:17;;;;;;;0.90;0.45;;;24.00;60.50;;;;;;6215461;28;20022;-67
2021/07/09 04:01:18;;;;;;;0.40;0.40;;;24.00;59.80;;;;;;6220343;28;20042;-67
2021/07/09 04:04:18;;;;;;;0.30;0.30;;;24.00;59.80;;;;;;6220671;28;20120;-68
2021/07/09 04:07:19;;;;;;;0.30;0.30;;;24.00;59.70;;;;;;6220440;28;20489;-68
2021/07/09 04:10:20;;;;;;;0.50;0.50;;;24.00;59.70;;;;;;6235106;28;20028;-68
2021/07/09 04:13:20;;;;;;;0.30;0.30;;;24.00;59.70;;;;;;6219896;28;20025;-68
2021/07/09 04:16:21;;;;;;;0.32;0.30;;;24.00;59.70;;;;;;6219835;28;20512;-68
2021/07/09 04:19:21;;;;;;;0.55;0.50;;;24.00;59.70;;;;;;6220128;28;20030;-67
2021/07/09 04:22:22;;;;;;;0.25;0.22;;;24.00;59.70;;;;;;6218784;28;20029;-67
2021/07/09 04:25:23;;;;;;;0.75;0.30;;;24.00;59.70;;;;;;6196453;28;20037;-67
2021/07/09 04:28:24;;;;;;;0.40;0.40;;;24.00;59.70;;;;;;6219360;28;20042;-68
2021/07/09 04:31:24;;;;;;;0.40;0.40;;;24.00;59.70;;;;;;6219399;28;20021;-67
2021/07/09 04:34:25;;;;;;;0.20;0.20;;;24.00;59.70;;;;;;6219564;28;20026;-67
2021/07/09 04:37:25;;;;;;;0.20;0.20;;;24.00;59.70;;;;;;6219172;28;20018;-68
2021/07/09 04:40:26;;;;;;;0.43;0.40;;;24.00;59.70;;;;;;6219860;28;20018;-68
2021/07/09 04:43:26;;;;;;;0.40;0.40;;;24.00;59.70;;;;;;6216228;28;20026;-68
2021/07/09 04:46:27;;;;;;;0.25;0.20;;;24.00;59.70;;;;;;6202110;28;20034;-68
2021/07/09 04:49:27;;;;;;;0.30;0.30;;;24.00;59.70;;;;;;6219305;28;20481;-68
2021/07/09 04:52:28;;;;;;;0.20;0.20;;;24.00;59.70;;;;;;6218642;28;20064;-68
2021/07/09 04:55:28;;;;;;;0.30;0.30;;;24.00;60.50;;;;;;6194642;28;20035;-68
2021/07/09 04:58:29;;;;;;;0.55;0.32;;;24.00;59.70;;;;;;6216750;28;20030;-68
2021/07/09 05:01:29;;;;;;;0.30;0.30;;;24.00;59.70;;;;;;6212779;28;20433;-68
2021/07/09 05:04:30;;;;;;;0.50;0.32;;;24.00;60.50;;;;;;6194577;28;20030;-67
2021/07/09 05:07:31;;;;;;;0.30;0.20;;;24.00;59.70;;;;;;6203521;28;20034;-68
2021/07/09 05:10:31;;;;;;;0.35;0.32;;;24.00;59.70;;;;;;6217725;28;20455;-69
2021/07/09 05:13:32;;;;;;;0.52;0.30;;;24.00;59.70;;;;;;6219048;28;20029;-68
2021/07/09 05:16:35;;;;;;;0.20;0.20;;;24.00;59.70;;;;;;6218966;28;20349;-68
2021/07/09 05:19:36;;;;;;;0.30;0.30;;;24.00;59.70;;;;;;6194266;28;20072;-68
2021/07/09 05:22:36;;;;;;;0.40;0.38;;;24.00;59.70;;;;;;6199155;28;20480;-67
2021/07/09 05:25:37;;;;;;;0.32;0.20;;;24.00;59.70;;;;;;6194076;28;20206;-68
2021/07/09 05:28:37;;;;;;;0.40;0.30;;;24.00;59.70;;;;;;6209653;28;20121;-68
2021/07/09 05:31:39;;;;;;;0.30;0.30;;;24.00;59.70;;;;;;6218461;28;20037;-68
2021/07/09 05:34:40;;;;;;;0.20;0.20;;;24.00;59.70;;;;;;6217478;28;20085;-68
2021/07/09 05:37:41;;;;;;;0.30;0.20;;;24.00;59.70;;;;;;6217885;28;20097;-68
2021/07/09 05:40:41;;;;;;;0.20;0.20;;;24.00;59.70;;;;;;6218047;28;20365;-68
2021/07/09 05:43:42;;;;;;;0.30;0.30;;;24.00;59.70;;;;;;6217698;28;20057;-67
2021/07/09 05:46:42;;;;;;;0.50;0.30;;;24.00;59.70;;;;;;6218001;28;20318;-68
2021/07/09 05:49:43;;;;;;;0.60;0.35;;;24.00;59.70;;;;;;6192062;28;20581;-67
2021/07/09 05:52:43;;;;;;;0.50;0.30;;;24.00;59.70;;;;;;6190007;28;20038;-68
2021/07/09 05:55:46;;;;;;;0.35;0.20;;;24.00;59.70;;;;;;6193206;28;20034;-68
2021/07/09 05:58:47;;;;;;;0.40;0.32;;;24.00;59.70;;;;;;6204329;28;20069;-68
2021/07/09 06:01:47;;;;;;;0.52;0.40;;;24.00;59.70;;;;;;6194433;28;20092;-68
2021/07/09 06:04:48;;;;;;;2.65;0.43;;;24.00;59.80;;;;;;6203709;28;20373;-68
2021/07/09 06:07:49;;;;;;;1.20;0.47;;;24.00;59.80;;;;;;6196057;28;20065;-68
2021/07/09 06:10:49;;;;;;;5.13;0.40;;;24.00;59.80;;;;;;6219111;28;20061;-67
2021/07/09 06:13:50;;;;;;;0.60;0.43;;;24.00;59.80;;;;;;6234945;28;20053;-68
2021/07/09 06:16:50;;;;;;;0.47;0.30;;;24.00;59.80;;;;;;6220010;28;20068;-68
2021/07/09 06:19:51;;;;;;;0.20;0.20;;;24.00;59.70;;;;;;6215254;28;20030;-67
2021/07/09 06:22:51;;;;;;;0.45;0.30;;;24.00;59.70;;;;;;6219428;28;20393;-67
2021/07/09 06:25:52;;;;;;;0.57;0.32;;;24.00;59.70;;;;;;6219612;28;20026;-67
2021/07/09 06:28:53;;;;;;;0.30;0.30;;;24.00;59.70;;;;;;6207798;28;20057;-68
2021/07/09 06:31:54;;;;;;;0.30;0.30;;;24.00;59.70;;;;;;6203459;28;20300;-67
2021/07/09 06:34:54;;;;;;;0.30;0.30;;;24.00;59.70;;;;;;6211305;28;20029;-67
2021/07/09 06:37:58;;;;;;;0.28;0.20;;;24.00;59.70;;;;;;6219260;28;20034;-68
2021/07/09 06:40:59;;;;;;;0.30;0.30;;;24.00;59.70;;;;;;6219481;28;20493;-67
2021/07/09 06:44:00;;;;;;;0.30;0.30;;;24.00;59.70;;;;;;6218787;28;20352;-67
2021/07/09 06:47:00;;;;;;;0.40;0.30;;;24.00;59.70;;;;;;6219678;28;20044;-68
2021/07/09 06:50:01;;;;;;;0.47;0.38;;;24.00;59.70;;;;;;6219250;28;20121;-67
2021/07/09 06:53:03;;;;;;;0.50;0.40;;;24.00;59.70;;;;;;6216192;28;20469;-68
2021/07/09 06:56:04;;;;;;;0.30;0.30;;;24.00;59.70;;;;;;6232709;28;20112;-68
2021/07/09 06:59:04;;;;;;;0.20;0.20;;;24.00;59.70;;;;;;6219042;28;20220;-68
2021/07/09 07:02:05;;;;;;;0.47;0.43;;;24.00;59.70;;;;;;6219131;28;20036;-68
2021/07/09 07:05:07;;;;;;;0.30;0.30;;;24.00;59.70;;;;;;6219218;28;20412;-68
2021/07/09 07:08:23;;;;;;;0.90;0.40;;;24.00;59.70;;;;;;6218910;28;20096;-68
2021/07/09 07:11:24;;;;;;;0.35;0.32;;;24.00;59.70;;;;;;6218582;28;20121;-68
2021/07/09 07:14:24;;;;;;;0.30;0.30;;;24.00;59.70;;;;;;6218522;28;20389;-68
2021/07/09 07:17:25;;;;;;;0.50;0.20;;;24.00;59.70;;;;;;6218475;28;20072;-67
2021/07/09 07:20:25;;;;;;;0.30;0.30;;;24.00;59.70;;;;;;6218788;28;20454;-68
2021/07/09 07:23:27;;;;;;;0.43;0.30;;;24.00;59.70;;;;;;6202445;28;21656;-67
2021/07/09 07:26:27;;;;;;;0.50;0.50;;;24.00;59.70;;;;;;6188991;28;20437;-68
2021/07/09 07:29:28;;;;;;;2.33;1.50;;;23.90;60.60;;;;;;6197147;28;20073;-68
2021/07/09 07:32:29;;;;;;;0.60;0.50;;;23.90;61.30;;;;;;6193321;28;20518;-68
2021/07/09 07:35:30;;;;;;;2.10;0.82;;;23.80;62.30;;;;;;6195454;28;20077;-67
2021/07/09 07:38:31;;;;;;;3.22;0.70;;;23.90;61.50;;;;;;6192262;28;20025;-68
2021/07/09 07:41:32;;;;;;;1.25;0.88;;;23.80;61.70;;;;;;6209062;28;20030;-68
2021/07/09 07:44:33;;;;;;;1.30;1.08;;;23.80;62.20;;;;;;6190883;28;20080;-67
2021/07/09 07:47:33;;;;;;;1.85;1.25;;;23.80;62.10;;;;;;6195039;28;20106;-68
2021/07/09 07:50:34;;;;;;;2.13;1.40;;;23.80;62.40;;;;;;6195912;28;20438;-67
2021/07/09 07:53:36;;;;;;;2.38;1.30;;;23.80;62.60;;;;;;6192942;28;20022;-67
2021/07/09 07:56:37;;;;;;;3.40;1.80;;;23.80;63.30;;;;;;6198934;28;20165;-67
2021/07/09 07:59:37;;;;;;;3.40;1.80;;;23.80;63.10;;;;;;6191587;28;20022;-68
2021/07/09 08:02:39;;;;;;;2.22;1.60;;;23.80;62.90;;;;;;6197480;28;20551;-67
2021/07/09 08:05:40;;;;;;;2.35;1.67;;;23.80;63.10;;;;;;6198397;28;20049;-67
2021/07/09 08:08:41;;;;;;;4.60;2.10;;;23.80;63.00;;;;;;6197149;28;20057;-67
2021/07/09 08:11:41;;;;;;;2.85;1.85;;;23.80;64.60;;;;;;6205394;28;20057;-68
2021/07/09 08:14:42;;;;;;;2.97;1.90;;;23.80;63.90;;;;;;6200670;28;20133;-67
2021/07/09 08:17:42;;;;;;;7.13;1.90;;;23.80;63.60;;;;;;6197493;28;20361;-68
2021/07/09 08:20:43;;;;;;;4.22;2.20;;;23.80;63.30;;;;;;6197516;28;20424;-68
2021/07/09 08:23:44;;;;;;;2.50;1.73;;;23.80;63.70;;;;;;6217088;28;20034;-68
2021/07/09 08:26:45;;;;;;;3.92;2.00;;;23.70;63.90;;;;;;6216354;28;20056;-68
2021/07/09 08:29:46;;;;;;;4.18;2.30;;;23.70;63.90;;;;;;6212565;28;20097;-68
2021/07/09 08:32:46;;;;;;;2.60;1.70;;;23.80;63.70;;;;;;6212769;28;20029;-68
2021/07/09 08:35:47;;;;;;;4.82;2.00;;;23.70;63.80;;;;;;6216387;28;20030;-68
2021/07/09 08:38:47;;;;;;;2.85;1.80;;;23.70;64.90;;;;;;6213208;28;20018;-68
2021/07/09 08:41:48;;;;;;;3.95;2.40;;;23.70;64.20;;;;;;6191785;28;20037;-68
2021/07/09 08:44:49;;;;;;;5.20;2.63;;;23.70;64.70;;;;;;6193415;28;20041;-68
2021/07/09 08:47:49;;;;;;;3.38;2.25;;;23.70;64.70;;;;;;6204598;28;20030;-68
2021/07/09 08:50:50;;;;;;;4.72;2.30;;;23.70;64.10;;;;;;6198401;28;20052;-68
2021/07/09 08:53:51;;;;;;;3.63;2.20;;;23.70;64.40;;;;;;6209467;28;20038;-68
2021/07/09 08:56:52;;;;;;;3.42;2.20;;;23.70;64.80;;;;;;6205882;28;20026;-68
2021/07/09 08:59:52;;;;;;;3.78;2.10;;;23.70;64.40;;;;;;6220785;28;20551;-67
2021/07/09 09:02:54;;;;;;;6.88;2.50;;;23.70;64.50;;;;;;6214308;28;20030;-68
2021/07/09 09:06:00;;;;;;;5.07;2.53;;;23.70;64.30;;;;;;6195569;28;20105;-68
2021/07/09 09:09:13;;;;;;;4.75;2.38;;;23.70;64.50;;;;;;6195443;28;20038;-67
2021/07/09 09:12:17;;;;;;;5.10;2.60;;;23.70;64.30;;;;;;6200578;28;20026;-68
2021/07/09 09:15:23;;;;;;;4.63;2.60;;;23.70;64.60;;;;;;6234947;28;20026;-68
2021/07/09 09:18:25;;;;;;;5.80;2.65;;;23.70;64.50;;;;;;6215236;28;20022;-68
2021/07/09 09:21:26;;;;;;;3.97;2.60;;;23.70;64.10;;;;;;6195339;28;20037;-68
2021/07/09 09:24:27;;;;;;;3.25;2.20;;;23.70;64.10;;;;;;6217104;28;20030;-69
2021/07/09 09:27:28;;;;;;;5.07;2.60;;;23.70;64.10;;;;;;6215417;28;20733;-68
2021/07/09 09:30:30;;;;;;;12.50;3.70;;;23.70;64.50;;;;;;6216307;28;20038;-68
2021/07/09 09:33:36;;;;;;;36.97;6.40;;;23.80;67.60;;;;;;6219338;28;20553;-68
2021/07/09 09:36:36;;;;;;;21.13;4.05;;;24.00;66.40;;;;;;6219903;28;20014;-69
2021/07/09 09:39:42;;;;;;;15.80;3.38;;;24.00;66.10;;;;;;6219001;28;20030;-68
2021/07/09 09:42:43;;;;;;;19.77;3.95;;;23.90;65.50;;;;;;6219178;28;20057;-68
2021/07/09 09:45:44;;;;;;;17.65;4.28;;;23.90;65.20;;;;;;6219120;28;20030;-68
2021/07/09 09:48:47;;;;;;;16.05;3.92;;;23.90;65.40;;;;;;6219204;28;20033;-68
2021/07/09 09:51:50;;;;;;;14.20;3.55;;;23.80;65.40;;;;;;6216164;28;20034;-67
2021/07/09 09:54:51;;;;;;;8.68;2.92;;;23.80;65.40;;;;;;6196517;28;20407;-68
2021/07/09 09:58:15;;;;;;;21.33;4.45;;;23.80;65.20;;;;;;6199245;28;20033;-68
2021/07/09 10:01:30;;;;;;;15.40;3.53;;;23.80;65.40;;;;;;6210389;28;20023;-67
2021/07/09 10:04:32;;;;;;;11.95;3.90;;;23.80;65.40;;;;;;6201329;28;20045;-68
2021/07/09 10:07:35;;;;;;;7.03;3.55;;;23.80;65.30;;;;;;6207235;28;20053;-68
2021/07/09 10:10:36;;;;;;;10.48;3.15;;;23.80;65.40;;;;;;6199484;28;20035;-68
2021/07/09 10:13:37;;;;;;;9.73;3.65;;;23.80;65.40;;;;;;6201659;28;20025;-68
2021/07/09 10:16:40;;;;;;;9.60;3.17;;;23.80;65.50;;;;;;6218682;28;20512;-68
2021/07/09 10:19:43;;;;;;;7.45;2.83;;;23.80;65.10;;;;;;6217279;28;20544;-68
2021/07/09 10:22:46;;;;;;;7.53;2.95;;;23.70;65.20;;;;;;6218887;28;20041;-68
2021/07/09 10:25:48;;;;;;;9.05;3.55;;;23.80;65.40;;;;;;6206271;28;20034;-68
2021/07/09 10:29:14;;;;;;;6.43;3.17;;;23.70;65.10;;;;;;6200798;28;20049;-68
2021/07/09 10:32:35;;;;;;;6.88;3.42;;;23.70;65.10;;;;;;6213391;28;20038;-68
2021/07/09 10:35:41;;;;;;;6.40;3.30;;;23.80;65.70;;;;;;6217658;28;20412;-68
2021/07/09 10:38:42;;;;;;;6.65;3.35;;;23.80;65.70;;;;;;6217941;28;21250;-68
2021/07/09 10:41:42;;;;;;;8.93;3.30;;;23.80;65.30;;;;;;6217969;28;20057;-67
2021/07/09 10:45:02;;;;;;;7.15;3.42;;;23.80;65.00;;;;;;6218986;28;20108;-68
2021/07/09 10:48:03;;;;;;;10.70;3.00;;;23.80;64.80;;;;;;6219330;28;20034;-68
2021/07/09 10:51:04;;;;;;;6.78;2.58;;;23.80;64.60;;;;;;6219112;28;20159;-68
2021/07/09 10:54:25;;;;;;;5.57;2.65;;;23.80;64.60;;;;;;6209280;28;20130;-68
2021/07/09 10:57:26;;;;;;;4.80;2.40;;;23.90;64.50;;;;;;6219295;28;20721;-67
2021/07/09 11:00:29;;;;;;;4.10;2.47;;;23.90;64.30;;;;;;6219382;28;20032;-68
2021/07/09 11:03:39;;;;;;;4.53;2.45;;;23.90;64.00;;;;;;6206066;28;20034;-68
2021/07/09 11:06:42;;;;;;;4.65;2.45;;;23.90;63.90;;;;;;6194096;28;20030;-68
2021/07/09 11:09:42;;;;;;;5.05;2.50;;;23.90;63.90;;;;;;6199156;28;20030;-68
2021/07/09 11:12:43;;;;;;;3.15;2.30;;;23.90;63.70;;;;;;6218753;28;20540;-68
2021/07/09 11:15:44;;;;;;;4.03;2.33;;;23.90;63.60;;;;;;6218497;28;20480;-68
2021/07/09 11:18:55;;;;;;;5.35;2.05;;;23.90;63.50;;;;;;6218446;28;20054;-68
2021/07/09 11:21:59;;;;;;;4.47;2.45;;;23.90;63.50;;;;;;6218790;28;20030;-68
2021/07/09 11:25:06;;;;;;;4.03;2.17;;;23.90;63.30;;;;;;6199377;28;20031;-68
2021/07/09 11:28:07;;;;;;;4.18;1.88;;;23.90;63.30;;;;;;6194229;28;20046;-68
2021/07/09 11:31:07;;;;;;;5.10;2.22;;;23.90;63.20;;;;;;6222783;28;20397;-68
2021/07/09 11:34:10;;;;;;;4.22;2.25;;;23.90;63.10;;;;;;6204761;28;20026;-68
2021/07/09 11:37:15;;;;;;;3.10;2.00;;;23.90;63.10;;;;;;6215445;28;20034;-68
2021/07/09 11:40:17;;;;;;;4.43;2.63;;;23.90;63.00;;;;;;6218964;28;20105;-68
2021/07/09 11:43:18;;;;;;;3.50;2.00;;;23.90;62.90;;;;;;6218358;28;20442;-68
2021/07/09 11:46:18;;;;;;;4.50;2.10;;;23.90;62.80;;;;;;6218807;28;20040;-68
2021/07/09 11:49:21;;;;;;;2.97;1.77;;;23.90;62.80;;;;;;6233756;28;20021;-68
2021/07/09 11:52:25;;;;;;;4.47;1.83;;;23.90;62.70;;;;;;6218240;28;20075;-68
2021/07/09 11:55:26;;;;;;;3.60;1.83;;;23.90;62.70;;;;;;6198355;28;20022;-68
2021/07/09 11:58:28;;;;;;;1.88;1.60;;;23.90;62.50;;;;;;6218113;28;20072;-68
2021/07/09 12:01:29;;;;;;;3.72;1.80;;;23.90;62.50;;;;;;6218351;28;20030;-68
2021/07/09 12:04:32;;;;;;;2.78;1.98;;;23.90;62.40;;;;;;6218164;28;20524;-68
2021/07/09 12:07:37;;;;;;;3.58;1.55;;;23.90;62.40;;;;;;6202886;28;20058;-68
2021/07/09 12:10:39;;;;;;;;;;;23.90;62.30;;;;;;6218311;28;20037;-68
2021/07/09 12:13:43;;;;;;;2.28;1.90;;;23.90;62.20;;;;;;6216595;28;19906;-68
2021/07/09 12:16:48;;;;;;;2.45;1.50;;;23.90;62.20;;;;;;6217725;28;20038;-68
2021/07/09 12:19:56;;;;;;;3.30;1.65;;;23.90;62.10;;;;;;6219201;28;20029;-68
2021/07/09 12:23:00;;;;;;;2.30;1.42;;;23.90;62.10;;;;;;6217007;28;20466;-68
2021/07/09 12:26:01;;;;;;;2.00;1.63;;;23.90;62.10;;;;;;6199281;28;20058;-68
2021/07/09 12:29:01;;;;;;;2.67;1.75;;;23.90;62.00;;;;;;6222281;28;20053;-68
2021/07/09 12:32:03;;;;;;;2.60;1.40;;;23.90;62.00;;;;;;6222475;28;20060;-68
2021/07/09 12:35:09;;;;;;;2.28;1.73;;;23.90;62.00;;;;;;6222310;28;20070;-68
2021/07/09 12:38:13;;;;;;;1.83;1.33;;;23.90;62.00;;;;;;6221880;28;20040;-68
2021/07/09 12:41:15;;;;;;;1.90;1.45;;;23.90;61.90;;;;;;6221783;28;20085;-68
2021/07/09 12:44:16;;;;;;;1.65;1.50;;;23.90;61.80;;;;;;6205581;28;20476;-68
2021/07/09 12:47:17;;;;;;;1.50;1.30;;;23.90;61.80;;;;;;6205990;28;20076;-68
2021/07/09 12:50:23;;;;;;;1.83;1.10;;;23.90;61.80;;;;;;6221871;28;20358;-68
2021/07/09 12:53:26;;;;;;;2.72;1.30;;;23.90;61.70;;;;;;6213749;28;20033;-68
2021/07/09 12:56:29;;;;;;;2.05;1.38;;;23.90;61.80;;;;;;6197695;28;20480;-68
2021/07/09 12:59:29;;;;;;;1.85;1.40;;;23.90;61.70;;;;;;6221645;28;20030;-68
2021/07/09 13:02:30;;;;;;;1.85;1.35;;;23.90;61.70;;;;;;6221531;28;20049;-68
2021/07/09 13:05:30;;;;;;;1.67;1.23;;;23.90;61.70;;;;;;6222164;28;20026;-68
2021/07/09 13:08:32;;;;;;;2.38;1.30;;;23.90;61.60;;;;;;6208415;28;20508;-68
2021/07/09 13:11:37;;;;;;;2.50;1.30;;;23.90;61.60;;;;;;6197310;28;20034;-68
2021/07/09 13:14:49;;;;;;;;;;;23.90;61.60;;;;;;6217031;28;20037;-68
2021/07/09 13:18:04;;;;;;;2.03;1.30;;;23.90;61.60;;;;;;6221455;28;20281;-68
2021/07/09 13:21:11;;;;;;;2.42;1.40;;;23.90;61.60;;;;;;6221583;28;20026;-68
2021/07/09 13:24:12;;;;;;;1.52;1.13;;;23.90;62.40;;;;;;6220567;28;20480;-68
2021/07/09 13:27:23;;;;;;;1.50;1.40;;;23.90;61.40;;;;;;6220937;28;20061;-68
2021/07/09 13:30:24;;;;;;;1.80;1.00;;;23.90;61.50;;;;;;6220934;28;20127;-68
2021/07/09 13:33:24;;;;;;;2.33;1.40;;;24.00;61.60;;;;;;6219464;28;20029;-68
2021/07/09 13:36:33;;;;;;;1.58;1.15;;;23.90;61.40;;;;;;6200405;28;20433;-68
2021/07/09 13:39:34;;;;;;;1.80;1.10;;;23.90;61.40;;;;;;6211861;28;20024;-68
2021/07/09 13:42:37;;;;;;;1.13;0.98;;;23.90;61.40;;;;;;6203579;28;20128;-68
2021/07/09 13:45:38;;;;;;;2.08;1.15;;;23.90;61.40;;;;;;6232877;28;20022;-68
2021/07/09 13:48:38;;;;;;;1.50;1.20;;;24.00;61.50;;;;;;6225705;28;20200;-68
2021/07/09 13:51:39;;;;;;;1.40;1.05;;;23.90;61.40;;;;;;6237065;28;20076;-68
2021/07/09 13:54:39;;;;;;;2.00;1.42;;;23.90;61.40;;;;;;6230320;28;20397;-68
2021/07/09 13:57:40;;;;;;;1.65;1.20;;;23.90;61.30;;;;;;6241469;28;20033;-68
2021/07/09 14:00:41;;;;;;;2.42;1.55;;;23.90;61.30;;;;;;6228123;28;20701;-68
2021/07/09 14:03:42;;;;;;;1.30;1.13;;;24.00;61.40;;;;;;6231982;28;20076;-68
2021/07/09 14:06:43;;;;;;;1.60;1.00;;;23.90;61.30;;;;;;6242981;28;20120;-67
2021/07/09 14:09:43;;;;;;;1.67;1.02;;;23.90;61.30;;;;;;6241492;28;20021;-68
2021/07/09 14:12:44;;;;;;;1.17;0.98;;;24.00;61.30;;;;;;6239819;28;20026;-69
2021/07/09 14:15:44;;;;;;;1.63;1.05;;;24.00;61.30;;;;;;6238134;28;20070;-68
2021/07/09 14:18:45;;;;;;;1.25;1.00;;;23.90;61.20;;;;;;6237029;28;20040;-68
2021/07/09 14:21:45;;;;;;;1.23;1.10;;;23.90;61.20;;;;;;6231446;28;20555;-68
2021/07/09 14:24:46;;;;;;;2.30;1.08;;;23.90;61.20;;;;;;6237571;28;20090;-68
2021/07/09 14:27:47;;;;;;;1.77;1.23;;;23.90;61.20;;;;;;6241999;28;20045;-68
2021/07/09 14:30:48;;;;;;;2.85;1.60;;;23.90;61.20;;;;;;6242348;28;20026;-68
2021/07/09 14:33:48;;;;;;;2.60;1.23;;;23.90;61.70;;;;;;6240842;28;20028;-68
2021/07/09 14:36:49;;;;;;;2.88;1.50;;;24.00;61.40;;;;;;6229893;28;20033;-68
2021/07/09 14:39:54;;;;;;;2.55;1.38;;;24.00;61.40;;;;;;6236354;28;20112;-68
2021/07/09 14:42:54;;;;;;;;;;;24.00;61.40;;;;;;6242262;28;20025;-68
2021/07/09 14:45:55;;;;;;;2.90;1.42;;;24.00;61.40;;;;;;6240447;28;20390;-68
2021/07/09 14:48:56;;;;;;;3.60;1.70;;;24.00;61.40;;;;;;6235690;28;20034;-67
2021/07/09 14:51:56;;;;;;;1.73;1.30;;;24.00;61.50;;;;;;6241740;28;20018;-67
2021/07/09 14:54:58;;;;;;;3.60;1.40;;;24.00;61.50;;;;;;6236391;28;20040;-68
2021/07/09 14:57:59;;;;;;;3.63;1.30;;;23.90;61.30;;;;;;6240640;28;20510;-67
2021/07/09 15:00:59;;;;;;;2.35;1.10;;;24.00;61.70;;;;;;6241337;28;20026;-68
2021/07/09 15:04:00;;;;;;;3.17;1.30;;;24.00;61.70;;;;;;6236285;28;20022;-68
2021/07/09 15:07:02;;;;;;;2.40;1.23;;;24.00;61.70;;;;;;6193698;28;20549;-68
2021/07/09 15:10:04;;;;;;;5.68;1.38;;;24.00;61.70;;;;;;6219770;28;20025;-68
2021/07/09 15:13:04;;;;;;;2.05;1.02;;;24.00;61.70;;;;;;6241537;28;20100;-68
2021/07/09 15:16:05;;;;;;;1.67;1.20;;;24.00;61.70;;;;;;6235797;28;20032;-68
2021/07/09 15:19:05;;;;;;;6.63;1.15;;;24.00;61.80;;;;;;6240872;28;20026;-68
2021/07/09 15:22:06;;;;;;;2.85;1.10;;;24.00;62.00;;;;;;6239613;28;20060;-68
2021/07/09 15:25:08;;;;;;;2.75;1.40;;;24.00;62.10;;;;;;6240311;28;20026;-68
2021/07/09 15:28:08;;;;;;;1.55;0.98;;;23.90;62.20;;;;;;6241407;28;20095;-68
2021/07/09 15:31:09;;;;;;;4.15;0.85;;;23.90;62.20;;;;;;6240269;28;20496;-68
2021/07/09 15:34:09;;;;;;;11.05;1.15;;;23.90;62.10;;;;;;6239675;28;20056;-68
2021/07/09 15:37:10;;;;;;;4.05;0.98;;;24.00;62.50;;;;;;6238086;28;20064;-68
2021/07/09 15:40:12;;;;;;;8.25;1.00;;;24.00;62.10;;;;;;6235212;28;20032;-68
2021/07/09 15:43:13;;;;;;;1.30;0.77;;;24.00;62.00;;;;;;6241132;28;20033;-68
2021/07/09 15:46:14;;;;;;;8.27;1.23;;;24.00;62.00;;;;;;6233915;28;20824;-68
2021/07/09 15:49:14;;;;;;;6.50;1.45;;;24.00;62.20;;;;;;6241039;28;20033;-68